sensor_id;sensor_type;location;lat;lon;timestamp;P1;durP1;ratioP1;P2;durP2;ratioP2
71360;SDS011;59166;48.908;1.870;2023-07-31T00:00:44;8.32;;;2.53;;
71360;SDS011;59166;48.908;1.870;2023-07-31T00:05:44;7.87;;;2.10;;
71360;SDS011;59166;48.908;1.870;2023-07-31T00:10:45;7.90;;;2.33;;
71360;SDS011;59166;48.908;1.870;2023-07-31T00:15:47;9.53;;;2.40;;
71360;SDS011;59166;48.908;1.870;2023-07-31T00:20:48;7.97;;;2.42;;
71360;SDS011;59166;48.908;1.870;2023-07-31T00:25:48;9.20;;;2.40;;
71360;SDS011;59166;48.908;1.870;2023-07-31T00:30:50;10.67;;;2.53;;
71360;SDS011;59166;48.908;1.870;2023-07-31T00:35:51;10.55;;;2.72;;
71360;SDS011;59166;48.908;1.870;2023-07-31T00:40:51;10.90;;;2.60;;
71360;SDS011;59166;48.908;1.870;2023-07-31T00:45:53;10.93;;;2.77;;
71360;SDS011;59166;48.908;1.870;2023-07-31T00:50:54;12.13;;;2.65;;
71360;SDS011;59166;48.908;1.870;2023-07-31T00:55:55;8.47;;;2.57;;
71360;SDS011;59166;48.908;1.870;2023-07-31T01:00:57;9.70;;;2.35;;
71360;SDS011;59166;48.908;1.870;2023-07-31T01:06:02;9.27;;;2.30;;
71360;SDS011;59166;48.908;1.870;2023-07-31T01:11:11;8.63;;;2.40;;
71360;SDS011;59166;48.908;1.870;2023-07-31T01:16:16;10.98;;;2.60;;
71360;SDS011;59166;48.908;1.870;2023-07-31T01:21:30;8.55;;;1.92;;
71360;SDS011;59166;48.908;1.870;2023-07-31T01:26:47;8.53;;;2.37;;
71360;SDS011;59166;48.908;1.870;2023-07-31T01:31:53;8.97;;;2.37;;
71360;SDS011;59166;48.908;1.870;2023-07-31T01:36:55;8.25;;;2.22;;
71360;SDS011;59166;48.908;1.870;2023-07-31T01:41:57;6.50;;;1.80;;
71360;SDS011;59166;48.908;1.870;2023-07-31T01:46:58;8.02;;;2.28;;
71360;SDS011;59166;48.908;1.870;2023-07-31T01:51:58;8.43;;;2.13;;
71360;SDS011;59166;48.908;1.870;2023-07-31T01:57:00;9.60;;;2.42;;
71360;SDS011;59166;48.908;1.870;2023-07-31T02:02:01;10.83;;;2.37;;
71360;SDS011;59166;48.908;1.870;2023-07-31T02:07:01;7.47;;;2.13;;
71360;SDS011;59166;48.908;1.870;2023-07-31T02:12:04;6.37;;;1.90;;
71360;SDS011;59166;48.908;1.870;2023-07-31T02:17:05;7.00;;;2.00;;
71360;SDS011;59166;48.908;1.870;2023-07-31T02:22:06;11.47;;;2.10;;
71360;SDS011;59166;48.908;1.870;2023-07-31T02:27:08;7.73;;;2.00;;
71360;SDS011;59166;48.908;1.870;2023-07-31T02:32:08;5.65;;;1.70;;
71360;SDS011;59166;48.908;1.870;2023-07-31T02:37:09;8.77;;;2.00;;
71360;SDS011;59166;48.908;1.870;2023-07-31T02:42:11;6.07;;;1.88;;
71360;SDS011;59166;48.908;1.870;2023-07-31T02:47:12;6.30;;;1.70;;
71360;SDS011;59166;48.908;1.870;2023-07-31T02:52:13;8.13;;;1.80;;
71360;SDS011;59166;48.908;1.870;2023-07-31T02:57:15;6.27;;;1.80;;
71360;SDS011;59166;48.908;1.870;2023-07-31T03:02:15;7.83;;;1.83;;
71360;SDS011;59166;48.908;1.870;2023-07-31T03:07:16;8.80;;;1.90;;
71360;SDS011;59166;48.908;1.870;2023-07-31T03:12:18;7.27;;;1.87;;
71360;SDS011;59166;48.908;1.870;2023-07-31T03:17:19;7.95;;;1.95;;
71360;SDS011;59166;48.908;1.870;2023-07-31T03:22:19;9.70;;;2.30;;
71360;SDS011;59166;48.908;1.870;2023-07-31T03:27:21;7.03;;;1.97;;
71360;SDS011;59166;48.908;1.870;2023-07-31T03:32:22;8.05;;;2.10;;
71360;SDS011;59166;48.908;1.870;2023-07-31T03:37:22;7.40;;;2.10;;
71360;SDS011;59166;48.908;1.870;2023-07-31T03:42:24;6.18;;;1.90;;
71360;SDS011;59166;48.908;1.870;2023-07-31T03:47:25;8.03;;;1.93;;
71360;SDS011;59166;48.908;1.870;2023-07-31T03:52:26;9.88;;;2.47;;
71360;SDS011;59166;48.908;1.870;2023-07-31T03:57:28;8.97;;;2.10;;
71360;SDS011;59166;48.908;1.870;2023-07-31T04:02:29;9.18;;;2.20;;
71360;SDS011;59166;48.908;1.870;2023-07-31T04:07:29;10.73;;;2.30;;
71360;SDS011;59166;48.908;1.870;2023-07-31T04:12:31;9.43;;;2.57;;
71360;SDS011;59166;48.908;1.870;2023-07-31T04:17:32;8.80;;;2.15;;
71360;SDS011;59166;48.908;1.870;2023-07-31T04:22:32;10.73;;;2.63;;
71360;SDS011;59166;48.908;1.870;2023-07-31T04:27:34;9.63;;;2.30;;
71360;SDS011;59166;48.908;1.870;2023-07-31T04:32:35;8.63;;;2.50;;
71360;SDS011;59166;48.908;1.870;2023-07-31T04:37:35;9.85;;;2.80;;
71360;SDS011;59166;48.908;1.870;2023-07-31T04:42:37;8.43;;;2.43;;
71360;SDS011;59166;48.908;1.870;2023-07-31T04:47:38;10.27;;;2.83;;
71360;SDS011;59166;48.908;1.870;2023-07-31T04:52:39;11.97;;;2.87;;
71360;SDS011;59166;48.908;1.870;2023-07-31T04:57:41;10.07;;;2.80;;
71360;SDS011;59166;48.908;1.870;2023-07-31T05:02:41;13.68;;;3.42;;
71360;SDS011;59166;48.908;1.870;2023-07-31T05:07:42;11.23;;;3.00;;
71360;SDS011;59166;48.908;1.870;2023-07-31T05:12:44;10.63;;;3.03;;
71360;SDS011;59166;48.908;1.870;2023-07-31T05:17:45;13.23;;;3.47;;
71360;SDS011;59166;48.908;1.870;2023-07-31T05:22:45;11.23;;;3.25;;
71360;SDS011;59166;48.908;1.870;2023-07-31T05:27:47;12.17;;;3.60;;
71360;SDS011;59166;48.908;1.870;2023-07-31T05:32:48;13.85;;;3.25;;
71360;SDS011;59166;48.908;1.870;2023-07-31T05:37:48;13.33;;;3.63;;
71360;SDS011;59166;48.908;1.870;2023-07-31T05:42:50;12.20;;;3.40;;
71360;SDS011;59166;48.908;1.870;2023-07-31T05:47:51;14.30;;;4.10;;
71360;SDS011;59166;48.908;1.870;2023-07-31T05:52:52;13.50;;;3.57;;
71360;SDS011;59166;48.908;1.870;2023-07-31T05:57:54;13.70;;;3.50;;
71360;SDS011;59166;48.908;1.870;2023-07-31T06:02:54;11.55;;;3.90;;
71360;SDS011;59166;48.908;1.870;2023-07-31T06:07:55;16.87;;;3.50;;
71360;SDS011;59166;48.908;1.870;2023-07-31T06:12:57;13.65;;;3.90;;
71360;SDS011;59166;48.908;1.870;2023-07-31T06:17:58;14.40;;;3.60;;
71360;SDS011;59166;48.908;1.870;2023-07-31T06:22:58;14.27;;;4.32;;
71360;SDS011;59166;48.908;1.870;2023-07-31T06:28:00;13.70;;;4.00;;
71360;SDS011;59166;48.908;1.870;2023-07-31T06:33:01;14.45;;;4.13;;
71360;SDS011;59166;48.908;1.870;2023-07-31T06:38:01;13.57;;;4.50;;
71360;SDS011;59166;48.908;1.870;2023-07-31T06:43:04;15.57;;;4.53;;
71360;SDS011;59166;48.908;1.870;2023-07-31T06:48:05;13.73;;;4.00;;
71360;SDS011;59166;48.908;1.870;2023-07-31T06:53:05;12.17;;;3.87;;
71360;SDS011;59166;48.908;1.870;2023-07-31T06:58:07;13.53;;;3.60;;
71360;SDS011;59166;48.908;1.870;2023-07-31T07:03:08;12.18;;;3.28;;
71360;SDS011;59166;48.908;1.870;2023-07-31T07:08:09;14.37;;;4.30;;
71360;SDS011;59166;48.908;1.870;2023-07-31T07:13:11;13.90;;;3.95;;
71360;SDS011;59166;48.908;1.870;2023-07-31T07:18:11;14.27;;;3.93;;
71360;SDS011;59166;48.908;1.870;2023-07-31T07:23:12;9.32;;;2.80;;
71360;SDS011;59166;48.908;1.870;2023-07-31T07:28:14;11.97;;;3.93;;
71360;SDS011;59166;48.908;1.870;2023-07-31T07:33:14;11.00;;;3.60;;
71360;SDS011;59166;48.908;1.870;2023-07-31T07:38:15;12.70;;;4.03;;
71360;SDS011;59166;48.908;1.870;2023-07-31T07:43:17;9.33;;;2.97;;
71360;SDS011;59166;48.908;1.870;2023-07-31T07:48:18;13.73;;;3.75;;
71360;SDS011;59166;48.908;1.870;2023-07-31T07:53:18;12.60;;;3.50;;
71360;SDS011;59166;48.908;1.870;2023-07-31T07:58:20;14.83;;;3.80;;
71360;SDS011;59166;48.908;1.870;2023-07-31T08:03:21;12.10;;;3.33;;
71360;SDS011;59166;48.908;1.870;2023-07-31T08:08:21;15.20;;;3.60;;
71360;SDS011;59166;48.908;1.870;2023-07-31T08:13:23;9.57;;;3.13;;
71360;SDS011;59166;48.908;1.870;2023-07-31T08:18:24;12.37;;;3.10;;
71360;SDS011;59166;48.908;1.870;2023-07-31T08:23:24;11.00;;;3.70;;
71360;SDS011;59166;48.908;1.870;2023-07-31T08:28:27;11.70;;;3.43;;
71360;SDS011;59166;48.908;1.870;2023-07-31T08:33:27;9.63;;;3.03;;
71360;SDS011;59166;48.908;1.870;2023-07-31T08:38:28;10.50;;;3.30;;
71360;SDS011;59166;48.908;1.870;2023-07-31T08:43:30;11.93;;;3.17;;
71360;SDS011;59166;48.908;1.870;2023-07-31T08:48:32;11.25;;;3.33;;
71360;SDS011;59166;48.908;1.870;2023-07-31T08:53:34;8.30;;;2.53;;
71360;SDS011;59166;48.908;1.870;2023-07-31T08:58:36;10.77;;;3.70;;
71360;SDS011;59166;48.908;1.870;2023-07-31T09:03:38;11.00;;;3.70;;
71360;SDS011;59166;48.908;1.870;2023-07-31T09:08:40;11.30;;;2.93;;
71360;SDS011;59166;48.908;1.870;2023-07-31T09:13:43;12.32;;;3.20;;
71360;SDS011;59166;48.908;1.870;2023-07-31T09:18:55;13.13;;;4.25;;
71360;SDS011;59166;48.908;1.870;2023-07-31T09:23:56;12.30;;;3.90;;
71360;SDS011;59166;48.908;1.870;2023-07-31T09:28:58;11.25;;;2.60;;
71360;SDS011;59166;48.908;1.870;2023-07-31T09:34:00;10.83;;;3.60;;
71360;SDS011;59166;48.908;1.870;2023-07-31T09:39:03;12.03;;;3.33;;
71360;SDS011;59166;48.908;1.870;2023-07-31T09:44:06;10.27;;;3.20;;
71360;SDS011;59166;48.908;1.870;2023-07-31T09:49:07;10.77;;;3.43;;
71360;SDS011;59166;48.908;1.870;2023-07-31T09:54:09;13.00;;;3.83;;
71360;SDS011;59166;48.908;1.870;2023-07-31T09:59:12;8.90;;;2.55;;
71360;SDS011;59166;48.908;1.870;2023-07-31T10:04:14;12.40;;;4.00;;
71360;SDS011;59166;48.908;1.870;2023-07-31T10:09:19;13.73;;;3.72;;
71360;SDS011;59166;48.908;1.870;2023-07-31T10:14:25;13.52;;;4.07;;
71360;SDS011;59166;48.908;1.870;2023-07-31T10:19:27;10.97;;;3.70;;
71360;SDS011;59166;48.908;1.870;2023-07-31T10:24:30;13.18;;;4.10;;
71360;SDS011;59166;48.908;1.870;2023-07-31T10:29:32;12.40;;;3.72;;
71360;SDS011;59166;48.908;1.870;2023-07-31T10:34:34;12.67;;;4.37;;
71360;SDS011;59166;48.908;1.870;2023-07-31T10:39:35;14.17;;;4.40;;
71360;SDS011;59166;48.908;1.870;2023-07-31T10:44:39;14.73;;;4.60;;
71360;SDS011;59166;48.908;1.870;2023-07-31T10:49:44;11.73;;;4.30;;
71360;SDS011;59166;48.908;1.870;2023-07-31T10:54:45;12.93;;;4.07;;
71360;SDS011;59166;48.908;1.870;2023-07-31T10:59:48;12.63;;;4.30;;
71360;SDS011;59166;48.908;1.870;2023-07-31T11:04:57;15.33;;;5.10;;
71360;SDS011;59166;48.908;1.870;2023-07-31T11:10:06;13.60;;;4.60;;
71360;SDS011;59166;48.908;1.870;2023-07-31T11:15:10;16.23;;;4.90;;
71360;SDS011;59166;48.908;1.870;2023-07-31T11:20:10;12.53;;;4.63;;
71360;SDS011;59166;48.908;1.870;2023-07-31T11:25:11;14.43;;;4.60;;
71360;SDS011;59166;48.908;1.870;2023-07-31T11:30:13;16.07;;;4.67;;
71360;SDS011;59166;48.908;1.870;2023-07-31T11:35:14;13.73;;;4.30;;
71360;SDS011;59166;48.908;1.870;2023-07-31T11:40:14;11.37;;;4.30;;
71360;SDS011;59166;48.908;1.870;2023-07-31T11:45:16;13.63;;;4.53;;
71360;SDS011;59166;48.908;1.870;2023-07-31T11:50:17;14.93;;;4.57;;
71360;SDS011;59166;48.908;1.870;2023-07-31T11:55:18;14.10;;;5.00;;
71360;SDS011;59166;48.908;1.870;2023-07-31T12:00:21;12.48;;;4.57;;
71360;SDS011;59166;48.908;1.870;2023-07-31T12:05:22;13.60;;;4.67;;
71360;SDS011;59166;48.908;1.870;2023-07-31T12:10:23;12.73;;;5.07;;
71360;SDS011;59166;48.908;1.870;2023-07-31T12:15:30;15.73;;;5.03;;
71360;SDS011;59166;48.908;1.870;2023-07-31T12:20:34;14.77;;;4.43;;
71360;SDS011;59166;48.908;1.870;2023-07-31T12:25:35;13.10;;;4.57;;
71360;SDS011;59166;48.908;1.870;2023-07-31T12:30:37;14.00;;;4.83;;
71360;SDS011;59166;48.908;1.870;2023-07-31T12:35:40;11.23;;;3.87;;
71360;SDS011;59166;48.908;1.870;2023-07-31T12:40:43;13.47;;;4.30;;
71360;SDS011;59166;48.908;1.870;2023-07-31T12:45:45;14.90;;;4.57;;
71360;SDS011;59166;48.908;1.870;2023-07-31T12:50:45;12.10;;;4.13;;
71360;SDS011;59166;48.908;1.870;2023-07-31T12:55:46;11.47;;;3.87;;
71360;SDS011;59166;48.908;1.870;2023-07-31T13:00:48;11.20;;;3.43;;
71360;SDS011;59166;48.908;1.870;2023-07-31T13:05:49;13.07;;;4.28;;
71360;SDS011;59166;48.908;1.870;2023-07-31T13:10:50;11.97;;;2.53;;
71360;SDS011;59166;48.908;1.870;2023-07-31T13:15:52;10.98;;;3.67;;
71360;SDS011;59166;48.908;1.870;2023-07-31T13:20:53;10.40;;;3.30;;
71360;SDS011;59166;48.908;1.870;2023-07-31T13:25:53;11.80;;;3.03;;
71360;SDS011;59166;48.908;1.870;2023-07-31T13:30:55;9.43;;;2.93;;
71360;SDS011;59166;48.908;1.870;2023-07-31T13:35:56;10.47;;;3.60;;
71360;SDS011;59166;48.908;1.870;2023-07-31T13:40:57;9.40;;;3.53;;
71360;SDS011;59166;48.908;1.870;2023-07-31T13:45:59;12.63;;;4.00;;
71360;SDS011;59166;48.908;1.870;2023-07-31T13:50:59;12.48;;;3.83;;
71360;SDS011;59166;48.908;1.870;2023-07-31T13:56:00;13.53;;;3.80;;
71360;SDS011;59166;48.908;1.870;2023-07-31T14:01:02;11.50;;;3.80;;
71360;SDS011;59166;48.908;1.870;2023-07-31T14:06:03;10.80;;;3.80;;
71360;SDS011;59166;48.908;1.870;2023-07-31T14:11:04;10.80;;;3.50;;
71360;SDS011;59166;48.908;1.870;2023-07-31T14:16:05;13.57;;;4.40;;
71360;SDS011;59166;48.908;1.870;2023-07-31T14:21:06;13.95;;;3.90;;
71360;SDS011;59166;48.908;1.870;2023-07-31T14:26:07;11.53;;;3.90;;
71360;SDS011;59166;48.908;1.870;2023-07-31T14:31:09;14.90;;;4.22;;
71360;SDS011;59166;48.908;1.870;2023-07-31T14:36:09;11.13;;;4.10;;
71360;SDS011;59166;48.908;1.870;2023-07-31T14:41:10;12.70;;;4.22;;
71360;SDS011;59166;48.908;1.870;2023-07-31T14:46:12;13.53;;;4.43;;
71360;SDS011;59166;48.908;1.870;2023-07-31T14:51:13;14.45;;;4.32;;
71360;SDS011;59166;48.908;1.870;2023-07-31T14:56:13;15.20;;;4.20;;
71360;SDS011;59166;48.908;1.870;2023-07-31T15:01:15;13.07;;;4.37;;
71360;SDS011;59166;48.908;1.870;2023-07-31T15:06:16;10.23;;;2.65;;
71360;SDS011;59166;48.908;1.870;2023-07-31T15:11:16;9.30;;;3.00;;
71360;SDS011;59166;48.908;1.870;2023-07-31T15:16:19;8.70;;;2.53;;
71360;SDS011;59166;48.908;1.870;2023-07-31T15:21:19;11.73;;;3.90;;
71360;SDS011;59166;48.908;1.870;2023-07-31T15:26:20;11.67;;;4.00;;
71360;SDS011;59166;48.908;1.870;2023-07-31T15:31:22;9.73;;;3.42;;
71360;SDS011;59166;48.908;1.870;2023-07-31T15:36:22;9.83;;;3.70;;
71360;SDS011;59166;48.908;1.870;2023-07-31T15:41:23;11.13;;;3.75;;
71360;SDS011;59166;48.908;1.870;2023-07-31T15:46:25;10.33;;;4.00;;
71360;SDS011;59166;48.908;1.870;2023-07-31T15:51:26;9.60;;;3.70;;
71360;SDS011;59166;48.908;1.870;2023-07-31T15:56:26;10.57;;;4.10;;
71360;SDS011;59166;48.908;1.870;2023-07-31T16:01:29;11.88;;;4.25;;
71360;SDS011;59166;48.908;1.870;2023-07-31T16:06:29;10.40;;;4.00;;
71360;SDS011;59166;48.908;1.870;2023-07-31T16:11:30;11.90;;;4.00;;
71360;SDS011;59166;48.908;1.870;2023-07-31T16:16:32;13.23;;;4.27;;
71360;SDS011;59166;48.908;1.870;2023-07-31T16:21:33;12.52;;;4.63;;
71360;SDS011;59166;48.908;1.870;2023-07-31T16:26:33;11.67;;;4.20;;
71360;SDS011;59166;48.908;1.870;2023-07-31T16:31:35;11.93;;;3.80;;
71360;SDS011;59166;48.908;1.870;2023-07-31T16:36:36;9.75;;;3.35;;
71360;SDS011;59166;48.908;1.870;2023-07-31T16:41:37;10.17;;;2.37;;
71360;SDS011;59166;48.908;1.870;2023-07-31T16:46:39;7.32;;;2.47;;
71360;SDS011;59166;48.908;1.870;2023-07-31T16:51:39;8.90;;;3.17;;
71360;SDS011;59166;48.908;1.870;2023-07-31T16:56:40;8.85;;;3.40;;
71360;SDS011;59166;48.908;1.870;2023-07-31T17:01:42;8.77;;;3.00;;
71360;SDS011;59166;48.908;1.870;2023-07-31T17:06:42;11.87;;;3.63;;
71360;SDS011;59166;48.908;1.870;2023-07-31T17:11:43;11.43;;;3.50;;
71360;SDS011;59166;48.908;1.870;2023-07-31T17:16:45;9.23;;;3.70;;
71360;SDS011;59166;48.908;1.870;2023-07-31T17:21:46;12.70;;;3.95;;
71360;SDS011;59166;48.908;1.870;2023-07-31T17:26:46;10.83;;;4.00;;
71360;SDS011;59166;48.908;1.870;2023-07-31T17:31:48;11.60;;;3.50;;
71360;SDS011;59166;48.908;1.870;2023-07-31T17:36:49;10.05;;;3.63;;
71360;SDS011;59166;48.908;1.870;2023-07-31T17:41:49;9.80;;;3.63;;
71360;SDS011;59166;48.908;1.870;2023-07-31T17:46:51;11.60;;;4.15;;
71360;SDS011;59166;48.908;1.870;2023-07-31T17:51:52;8.90;;;3.50;;
71360;SDS011;59166;48.908;1.870;2023-07-31T17:56:52;10.93;;;4.13;;
71360;SDS011;59166;48.908;1.870;2023-07-31T18:01:55;10.23;;;3.90;;
71360;SDS011;59166;48.908;1.870;2023-07-31T18:06:56;10.97;;;3.83;;
71360;SDS011;59166;48.908;1.870;2023-07-31T18:11:56;8.95;;;3.15;;
71360;SDS011;59166;48.908;1.870;2023-07-31T18:16:59;10.90;;;3.65;;
71360;SDS011;59166;48.908;1.870;2023-07-31T18:22:00;9.27;;;3.33;;
71360;SDS011;59166;48.908;1.870;2023-07-31T18:27:01;7.38;;;2.70;;
71360;SDS011;59166;48.908;1.870;2023-07-31T18:32:03;7.93;;;2.27;;
71360;SDS011;59166;48.908;1.870;2023-07-31T18:37:04;9.88;;;3.08;;
71360;SDS011;59166;48.908;1.870;2023-07-31T18:42:05;9.37;;;3.23;;
71360;SDS011;59166;48.908;1.870;2023-07-31T18:47:08;9.48;;;3.13;;
71360;SDS011;59166;48.908;1.870;2023-07-31T18:52:08;9.73;;;3.63;;
71360;SDS011;59166;48.908;1.870;2023-07-31T18:57:09;9.65;;;4.03;;
71360;SDS011;59166;48.908;1.870;2023-07-31T19:02:11;6.50;;;2.30;;
71360;SDS011;59166;48.908;1.870;2023-07-31T19:07:12;9.98;;;3.53;;
71360;SDS011;59166;48.908;1.870;2023-07-31T19:12:13;11.03;;;3.77;;
71360;SDS011;59166;48.908;1.870;2023-07-31T19:17:15;11.10;;;4.10;;
71360;SDS011;59166;48.908;1.870;2023-07-31T19:22:16;12.38;;;3.80;;
71360;SDS011;59166;48.908;1.870;2023-07-31T19:27:17;10.93;;;3.57;;
71360;SDS011;59166;48.908;1.870;2023-07-31T19:32:19;11.37;;;3.97;;
71360;SDS011;59166;48.908;1.870;2023-07-31T19:37:19;9.85;;;4.25;;
71360;SDS011;59166;48.908;1.870;2023-07-31T19:42:20;10.13;;;4.20;;
71360;SDS011;59166;48.908;1.870;2023-07-31T19:47:22;11.20;;;4.57;;
71360;SDS011;59166;48.908;1.870;2023-07-31T19:52:23;9.17;;;3.47;;
71360;SDS011;59166;48.908;1.870;2023-07-31T19:57:24;11.40;;;3.90;;
71360;SDS011;59166;48.908;1.870;2023-07-31T20:02:26;9.87;;;3.73;;
71360;SDS011;59166;48.908;1.870;2023-07-31T20:07:26;11.30;;;4.45;;
71360;SDS011;59166;48.908;1.870;2023-07-31T20:12:27;10.53;;;4.13;;
71360;SDS011;59166;48.908;1.870;2023-07-31T20:17:29;9.50;;;3.35;;
71360;SDS011;59166;48.908;1.870;2023-07-31T20:22:30;14.30;;;4.20;;
71360;SDS011;59166;48.908;1.870;2023-07-31T20:27:30;8.50;;;3.17;;
71360;SDS011;59166;48.908;1.870;2023-07-31T20:32:32;10.97;;;4.50;;
71360;SDS011;59166;48.908;1.870;2023-07-31T20:37:33;11.10;;;4.07;;
71360;SDS011;59166;48.908;1.870;2023-07-31T20:42:34;9.97;;;3.80;;
71360;SDS011;59166;48.908;1.870;2023-07-31T20:47:36;9.10;;;2.90;;
71360;SDS011;59166;48.908;1.870;2023-07-31T20:52:36;8.90;;;3.15;;
71360;SDS011;59166;48.908;1.870;2023-07-31T20:57:37;7.37;;;2.73;;
71360;SDS011;59166;48.908;1.870;2023-07-31T21:02:39;8.47;;;2.90;;
71360;SDS011;59166;48.908;1.870;2023-07-31T21:07:39;8.30;;;2.80;;
71360;SDS011;59166;48.908;1.870;2023-07-31T21:12:40;7.07;;;2.40;;
71360;SDS011;59166;48.908;1.870;2023-07-31T21:17:42;6.40;;;2.10;;
71360;SDS011;59166;48.908;1.870;2023-07-31T21:22:42;7.33;;;2.20;;
71360;SDS011;59166;48.908;1.870;2023-07-31T21:27:43;6.28;;;1.88;;
71360;SDS011;59166;48.908;1.870;2023-07-31T21:32:45;8.67;;;2.00;;
71360;SDS011;59166;48.908;1.870;2023-07-31T21:37:46;6.40;;;1.93;;
71360;SDS011;59166;48.908;1.870;2023-07-31T21:42:47;7.00;;;2.30;;
71360;SDS011;59166;48.908;1.870;2023-07-31T21:47:50;5.23;;;1.70;;
71360;SDS011;59166;48.908;1.870;2023-07-31T21:52:50;7.53;;;1.97;;
71360;SDS011;59166;48.908;1.870;2023-07-31T21:57:51;6.63;;;1.60;;
71360;SDS011;59166;48.908;1.870;2023-07-31T22:02:53;4.57;;;1.45;;
71360;SDS011;59166;48.908;1.870;2023-07-31T22:07:54;5.57;;;1.80;;
71360;SDS011;59166;48.908;1.870;2023-07-31T22:12:54;6.72;;;1.73;;
71360;SDS011;59166;48.908;1.870;2023-07-31T22:17:57;4.97;;;1.60;;
71360;SDS011;59166;48.908;1.870;2023-07-31T22:22:57;6.07;;;1.63;;
71360;SDS011;59166;48.908;1.870;2023-07-31T22:27:58;6.23;;;1.80;;
71360;SDS011;59166;48.908;1.870;2023-07-31T22:33:00;6.30;;;1.85;;
71360;SDS011;59166;48.908;1.870;2023-07-31T22:38:00;4.53;;;1.30;;
71360;SDS011;59166;48.908;1.870;2023-07-31T22:43:01;5.07;;;1.58;;
71360;SDS011;59166;48.908;1.870;2023-07-31T22:48:03;8.57;;;1.90;;
71360;SDS011;59166;48.908;1.870;2023-07-31T22:53:04;5.73;;;1.73;;
71360;SDS011;59166;48.908;1.870;2023-07-31T22:58:04;4.03;;;1.50;;
71360;SDS011;59166;48.908;1.870;2023-07-31T23:03:06;6.70;;;1.70;;
71360;SDS011;59166;48.908;1.870;2023-07-31T23:08:07;7.78;;;1.35;;
71360;SDS011;59166;48.908;1.870;2023-07-31T23:13:08;5.13;;;1.40;;
71360;SDS011;59166;48.908;1.870;2023-07-31T23:18:10;4.70;;;1.23;;
71360;SDS011;59166;48.908;1.870;2023-07-31T23:23:10;5.28;;;1.20;;
71360;SDS011;59166;48.908;1.870;2023-07-31T23:28:11;3.13;;;1.00;;
71360;SDS011;59166;48.908;1.870;2023-07-31T23:33:13;4.10;;;1.20;;
71360;SDS011;59166;48.908;1.870;2023-07-31T23:38:13;3.38;;;1.00;;
71360;SDS011;59166;48.908;1.870;2023-07-31T23:43:14;4.97;;;1.27;;
71360;SDS011;59166;48.908;1.870;2023-07-31T23:48:16;2.90;;;0.80;;
71360;SDS011;59166;48.908;1.870;2023-07-31T23:53:16;4.00;;;1.23;;
71360;SDS011;59166;48.908;1.870;2023-07-31T23:58:17;4.45;;;1.20;;
